This is the latest recevied weather packets stored in our database for station/object K7DC. If no packets are shown the sender has not sent any weather packets the latest 10 day(s).
| Time | Temp. | Humidity | Pressure | Rain* | Wind** | Luminosity | Snow |
|---|---|---|---|---|---|---|---|
| 1777657640 | 28.33° C | 26% | 1014.1 hPa | 0 mm | - | 850 W/m² | - |
| 1777657338 | 27.78° C | 26% | 1014.1 hPa | 0 mm | - | 845 W/m² | - |
| 1777657036 | 26.11° C | 28% | 1013.8 hPa | 0 mm | - | 833 W/m² | - |
| 1777656733 | 26.11° C | 31% | 1014.2 hPa | 0 mm | - | 826 W/m² | - |
| 1777656429 | 25° C | 32% | 1014.2 hPa | 0 mm | - | 816 W/m² | - |
| 1777656123 | 25.56° C | 31% | 1014.1 hPa | 0 mm | - | 806 W/m² | - |
| 1777655820 | 25.56° C | 32% | 1014.2 hPa | 0 mm | - | 796 W/m² | - |
| 1777655517 | 25.56° C | 31% | 1014.2 hPa | 0 mm | - | 786 W/m² | - |
| 1777655214 | 25° C | 32% | 1014.4 hPa | 0 mm | - | 773 W/m² | - |
| 1777654911 | 23.89° C | 35% | 1014.2 hPa | 0 mm | - | 761 W/m² | - |
| 1777654608 | 24.44° C | 34% | 1014.3 hPa | 0 mm | - | 749 W/m² | - |
| 1777654305 | 24.44° C | 33% | 1014.4 hPa | 0 mm | - | 736 W/m² | - |
| 1777654004 | 23.89° C | 34% | 1014.4 hPa | 0 mm | - | 722 W/m² | - |
| 1777653700 | 24.44° C | 35% | 1014.3 hPa | 0 mm | - | 710 W/m² | - |
| 1777653396 | 25° C | 33% | 1014.3 hPa | 0 mm | - | 696 W/m² | - |
| 1777653093 | 26.11° C | 32% | 1014.2 hPa | 0 mm | - | 683 W/m² | - |
| 1777652789 | 25° C | 34% | 1014.2 hPa | 0 mm | - | 666 W/m² | - |
| 1777652486 | 23.89° C | 36% | 1014.3 hPa | 0 mm | - | 651 W/m² | - |
| 1777652184 | 23.33° C | 37% | 1014 hPa | 0 mm | - | 635 W/m² | - |
| 1777651881 | 23.89° C | 37% | 1014.1 hPa | 0 mm | - | 620 W/m² | - |
| 1777651577 | 23.33° C | 40% | 1014.2 hPa | 0 mm | - | 603 W/m² | - |
| 1777651275 | 22.22° C | 43% | 1014.2 hPa | 0 mm | - | 586 W/m² | - |
| 1777650971 | 22.78° C | 42% | 1014 hPa | 0 mm | - | 568 W/m² | - |
| 1777650668 | 22.22° C | 43% | 1014.1 hPa | 0 mm | - | 552 W/m² | - |
| 1777650365 | 22.22° C | 44% | 1014 hPa | 0 mm | - | 534 W/m² | - |
* Rain latest hour (hover to see other rain measurements)
** Current wind speed in m/s (hover to see current wind gust speed)